CheckWX is a tool to help pilots better visualize weather data.  It is not intended as a substitute for an official pre-flight weather briefing.

01:25:40 UTC

KEKO METAR
Elko Regional Airport
Elko, Nevada, USA
Current

30 mins ago

KEKO 240056Z AUTO 24004KT 10SM BKN075 OVC095 M01/M10 A3015 RMK AO2 SLP264 T10061100
Observed
Feb-24 @ 00:56 UTC
Wind
  • 240° at 4 KTS
Visibility
10 SM
Flight Rules
VFR
Cloud Levels
  • Broken at 7,500' AGL
  • Overcast at 9,500' AGL
Temperature
-1°C / 30°F
Dewpoint
-10°C / 14°F
Humidity
51%
Altimeter
30.15" Hg
Pressure
1026.4 hPa
Previous

1 hour ago

KEKO 232356Z AUTO 00000KT 10SM OVC044 00/M11 A3016 RMK AO2 SLP267 T00001106 10000 21078 58004
Observed
Feb-23 @ 23:56 UTC
Visibility
10 SM
Flight Rules
VFR
Cloud Levels
  • Overcast at 4,400' AGL
Temperature
C / 32°F
Dewpoint
-11°C / 12°F
Humidity
44%
Altimeter
30.16" Hg
Pressure
1026.7 hPa
Previous

2 hours ago

KEKO 232256Z AUTO 25003KT 10SM OVC047 M01/M11 A3017 RMK AO2 SLP272 T10061106
Observed
Feb-23 @ 22:56 UTC
Wind
  • 250° at 3 KTS
Visibility
10 SM
Flight Rules
VFR
Cloud Levels
  • Overcast at 4,700' AGL
Temperature
-1°C / 30°F
Dewpoint
-11°C / 12°F
Humidity
47%
Altimeter
30.17" Hg
Pressure
1027.2 hPa